Beechville, Kentucky
Current Conditions -  °F | °C
As of 7:55 AM on Wednesday 28 Jan 2015 (Local Time) from KGLW Reporting Station
Clear Clear  
Wind Chill: 19°   Ceiling: Unl
Heat Index: 25°   Visibility: 10mi
Dew Point: 18°   Wind: 5mph
Humidity: 75%   Direction: 90°E
Pressure: 30.36"   Gusts: NA
Location:  36.9886°N, 85.5829°W
Report Text: KGLW 281355Z AUTO 09004KT 10SM CLR M04/M08 A3036 RMK AO2 T10411079
Loading
Personal Weather Stations






























Interactive Weather Map New forecast layout! Learn more

10-Day Weather Forecast

Advertisements
Track Severe Weather on mobile